sensor_id;sensor_type;location;lat;lon;timestamp;temperature;humidity
24408;DHT22;12542;50.924;4.516;2022-09-09T00:04:41;16.00;99.90
24408;DHT22;12542;50.924;4.516;2022-09-09T00:07:43;16.00;99.90
24408;DHT22;12542;50.924;4.516;2022-09-09T00:10:39;16.00;99.90
24408;DHT22;12542;50.924;4.516;2022-09-09T00:16:17;16.00;99.90
24408;DHT22;12542;50.924;4.516;2022-09-09T00:19:07;15.70;99.90
24408;DHT22;12542;50.924;4.516;2022-09-09T00:21:47;15.70;99.90
24408;DHT22;12542;50.924;4.516;2022-09-09T00:24:41;15.70;99.90
24408;DHT22;12542;50.924;4.516;2022-09-09T00:27:33;15.70;99.90
24408;DHT22;12542;50.924;4.516;2022-09-09T00:30:18;15.70;99.90
24408;DHT22;12542;50.924;4.516;2022-09-09T00:33:15;15.80;99.90
24408;DHT22;12542;50.924;4.516;2022-09-09T00:35:48;15.80;99.90
24408;DHT22;12542;50.924;4.516;2022-09-09T00:38:52;15.80;99.90
24408;DHT22;12542;50.924;4.516;2022-09-09T00:44:33;16.00;99.90
24408;DHT22;12542;50.924;4.516;2022-09-09T00:52:58;15.90;99.90
24408;DHT22;12542;50.924;4.516;2022-09-09T00:55:54;15.90;99.90
24408;DHT22;12542;50.924;4.516;2022-09-09T00:58:21;16.00;99.90
24408;DHT22;12542;50.924;4.516;2022-09-09T01:00:55;15.90;99.90
24408;DHT22;12542;50.924;4.516;2022-09-09T01:14:29;16.20;99.90
24408;DHT22;12542;50.924;4.516;2022-09-09T01:17:21;16.20;99.90
24408;DHT22;12542;50.924;4.516;2022-09-09T01:22:40;15.80;99.90
24408;DHT22;12542;50.924;4.516;2022-09-09T01:28:28;15.80;99.90
24408;DHT22;12542;50.924;4.516;2022-09-09T01:30:56;15.60;99.90
24408;DHT22;12542;50.924;4.516;2022-09-09T01:33:22;15.50;99.90
24408;DHT22;12542;50.924;4.516;2022-09-09T01:38:37;15.30;99.90
24408;DHT22;12542;50.924;4.516;2022-09-09T01:41:04;15.20;99.90
24408;DHT22;12542;50.924;4.516;2022-09-09T01:43:30;15.30;99.90
24408;DHT22;12542;50.924;4.516;2022-09-09T01:45:59;15.20;99.90
24408;DHT22;12542;50.924;4.516;2022-09-09T01:48:26;15.20;99.90
24408;DHT22;12542;50.924;4.516;2022-09-09T01:50:52;15.30;99.90
24408;DHT22;12542;50.924;4.516;2022-09-09T01:53:19;15.30;99.90
24408;DHT22;12542;50.924;4.516;2022-09-09T02:01:43;15.20;99.90
24408;DHT22;12542;50.924;4.516;2022-09-09T02:07:31;15.10;99.90
24408;DHT22;12542;50.924;4.516;2022-09-09T02:10:22;15.20;99.90
24408;DHT22;12542;50.924;4.516;2022-09-09T02:12:55;15.20;99.90
24408;DHT22;12542;50.924;4.516;2022-09-09T02:15:28;15.20;99.90
24408;DHT22;12542;50.924;4.516;2022-09-09T02:17:58;15.10;99.90
24408;DHT22;12542;50.924;4.516;2022-09-09T02:20:26;15.10;99.90
24408;DHT22;12542;50.924;4.516;2022-09-09T02:22:53;15.00;99.90
24408;DHT22;12542;50.924;4.516;2022-09-09T02:25:23;15.00;99.90
24408;DHT22;12542;50.924;4.516;2022-09-09T02:27:50;15.10;99.90
24408;DHT22;12542;50.924;4.516;2022-09-09T02:30:37;15.10;99.90
24408;DHT22;12542;50.924;4.516;2022-09-09T02:33:07;15.10;99.90
24408;DHT22;12542;50.924;4.516;2022-09-09T02:35:38;15.10;99.90
24408;DHT22;12542;50.924;4.516;2022-09-09T02:38:10;15.10;99.90
24408;DHT22;12542;50.924;4.516;2022-09-09T02:40:38;15.00;99.90
24408;DHT22;12542;50.924;4.516;2022-09-09T02:43:03;15.10;99.90
24408;DHT22;12542;50.924;4.516;2022-09-09T02:45:41;15.10;99.90
24408;DHT22;12542;50.924;4.516;2022-09-09T02:48:14;15.10;99.90
24408;DHT22;12542;50.924;4.516;2022-09-09T02:50:59;15.10;99.90
24408;DHT22;12542;50.924;4.516;2022-09-09T02:53:42;15.10;99.90
24408;DHT22;12542;50.924;4.516;2022-09-09T02:56:15;15.00;99.90
24408;DHT22;12542;50.924;4.516;2022-09-09T02:58:42;15.10;99.90
24408;DHT22;12542;50.924;4.516;2022-09-09T03:01:08;15.00;99.90
24408;DHT22;12542;50.924;4.516;2022-09-09T03:03:35;15.10;99.90
24408;DHT22;12542;50.924;4.516;2022-09-09T03:06:01;15.20;99.90
24408;DHT22;12542;50.924;4.516;2022-09-09T03:08:26;15.30;99.90
24408;DHT22;12542;50.924;4.516;2022-09-09T03:10:57;15.40;99.90
24408;DHT22;12542;50.924;4.516;2022-09-09T03:13:23;15.40;99.90
24408;DHT22;12542;50.924;4.516;2022-09-09T03:15:50;15.40;99.90
24408;DHT22;12542;50.924;4.516;2022-09-09T03:18:17;15.40;99.90
24408;DHT22;12542;50.924;4.516;2022-09-09T03:20:43;15.40;99.90
24408;DHT22;12542;50.924;4.516;2022-09-09T03:23:09;15.30;99.90
24408;DHT22;12542;50.924;4.516;2022-09-09T03:25:35;15.30;99.90
24408;DHT22;12542;50.924;4.516;2022-09-09T03:28:01;15.30;99.90
24408;DHT22;12542;50.924;4.516;2022-09-09T03:30:28;15.20;99.90
24408;DHT22;12542;50.924;4.516;2022-09-09T03:32:54;15.30;99.90
24408;DHT22;12542;50.924;4.516;2022-09-09T03:35:20;15.20;99.90
24408;DHT22;12542;50.924;4.516;2022-09-09T03:37:46;15.30;99.90
24408;DHT22;12542;50.924;4.516;2022-09-09T03:40:12;15.20;99.90
24408;DHT22;12542;50.924;4.516;2022-09-09T03:42:39;15.10;99.90
24408;DHT22;12542;50.924;4.516;2022-09-09T03:45:06;15.00;99.90
24408;DHT22;12542;50.924;4.516;2022-09-09T03:47:32;15.10;99.90
24408;DHT22;12542;50.924;4.516;2022-09-09T03:49:58;15.20;99.90
24408;DHT22;12542;50.924;4.516;2022-09-09T03:52:24;15.10;99.90
24408;DHT22;12542;50.924;4.516;2022-09-09T03:54:52;15.10;99.90
24408;DHT22;12542;50.924;4.516;2022-09-09T03:57:18;15.10;99.90
24408;DHT22;12542;50.924;4.516;2022-09-09T03:59:44;15.20;99.90
24408;DHT22;12542;50.924;4.516;2022-09-09T04:02:10;15.10;99.90
24408;DHT22;12542;50.924;4.516;2022-09-09T04:04:35;15.20;99.90
24408;DHT22;12542;50.924;4.516;2022-09-09T04:07:01;15.10;99.90
24408;DHT22;12542;50.924;4.516;2022-09-09T04:09:27;15.10;99.90
24408;DHT22;12542;50.924;4.516;2022-09-09T04:11:53;15.10;99.90
24408;DHT22;12542;50.924;4.516;2022-09-09T04:14:20;15.10;99.90
24408;DHT22;12542;50.924;4.516;2022-09-09T04:16:46;15.00;99.90
24408;DHT22;12542;50.924;4.516;2022-09-09T04:19:12;15.10;99.90
24408;DHT22;12542;50.924;4.516;2022-09-09T04:21:40;15.00;99.90
24408;DHT22;12542;50.924;4.516;2022-09-09T04:24:07;15.10;99.90
24408;DHT22;12542;50.924;4.516;2022-09-09T04:26:34;15.10;99.90
24408;DHT22;12542;50.924;4.516;2022-09-09T04:29:02;15.10;99.90
24408;DHT22;12542;50.924;4.516;2022-09-09T04:31:28;15.20;99.90
24408;DHT22;12542;50.924;4.516;2022-09-09T04:33:54;15.30;99.90
24408;DHT22;12542;50.924;4.516;2022-09-09T04:36:19;15.20;99.90
24408;DHT22;12542;50.924;4.516;2022-09-09T04:38:46;15.30;99.90
24408;DHT22;12542;50.924;4.516;2022-09-09T04:41:12;15.30;99.90
24408;DHT22;12542;50.924;4.516;2022-09-09T04:43:39;15.20;99.90
24408;DHT22;12542;50.924;4.516;2022-09-09T04:46:05;15.20;99.90
24408;DHT22;12542;50.924;4.516;2022-09-09T04:48:31;15.10;99.90
24408;DHT22;12542;50.924;4.516;2022-09-09T04:50:59;15.10;99.90
24408;DHT22;12542;50.924;4.516;2022-09-09T04:53:25;15.20;99.90
24408;DHT22;12542;50.924;4.516;2022-09-09T04:56:00;15.10;99.90
24408;DHT22;12542;50.924;4.516;2022-09-09T04:58:26;15.10;99.90
24408;DHT22;12542;50.924;4.516;2022-09-09T05:00:52;15.20;99.90
24408;DHT22;12542;50.924;4.516;2022-09-09T05:03:18;15.10;99.90
24408;DHT22;12542;50.924;4.516;2022-09-09T05:05:44;15.20;99.90
24408;DHT22;12542;50.924;4.516;2022-09-09T05:08:10;15.20;99.90
24408;DHT22;12542;50.924;4.516;2022-09-09T05:10:38;15.20;99.90
24408;DHT22;12542;50.924;4.516;2022-09-09T05:13:04;15.20;99.90
24408;DHT22;12542;50.924;4.516;2022-09-09T05:15:31;15.20;99.90
24408;DHT22;12542;50.924;4.516;2022-09-09T05:17:59;15.30;99.90
24408;DHT22;12542;50.924;4.516;2022-09-09T05:20:25;15.20;99.90
24408;DHT22;12542;50.924;4.516;2022-09-09T05:22:56;15.30;99.90
24408;DHT22;12542;50.924;4.516;2022-09-09T05:25:26;15.20;99.90
24408;DHT22;12542;50.924;4.516;2022-09-09T05:27:53;15.20;99.90
24408;DHT22;12542;50.924;4.516;2022-09-09T05:30:19;15.40;99.90
24408;DHT22;12542;50.924;4.516;2022-09-09T05:32:46;15.40;99.90
24408;DHT22;12542;50.924;4.516;2022-09-09T05:35:13;15.40;99.90
24408;DHT22;12542;50.924;4.516;2022-09-09T05:37:38;15.60;99.90
24408;DHT22;12542;50.924;4.516;2022-09-09T05:40:05;15.80;99.90
24408;DHT22;12542;50.924;4.516;2022-09-09T05:42:31;15.90;99.90
24408;DHT22;12542;50.924;4.516;2022-09-09T05:44:57;16.00;99.90
24408;DHT22;12542;50.924;4.516;2022-09-09T05:47:24;16.20;99.90
24408;DHT22;12542;50.924;4.516;2022-09-09T05:49:51;16.30;99.90
24408;DHT22;12542;50.924;4.516;2022-09-09T05:52:18;16.40;99.90
24408;DHT22;12542;50.924;4.516;2022-09-09T05:54:43;16.70;99.90
24408;DHT22;12542;50.924;4.516;2022-09-09T05:57:09;16.50;99.90
24408;DHT22;12542;50.924;4.516;2022-09-09T05:59:35;16.30;99.90
24408;DHT22;12542;50.924;4.516;2022-09-09T06:02:01;16.20;99.90
24408;DHT22;12542;50.924;4.516;2022-09-09T06:04:26;16.20;99.90
24408;DHT22;12542;50.924;4.516;2022-09-09T06:06:52;16.20;99.90
24408;DHT22;12542;50.924;4.516;2022-09-09T06:09:18;16.00;99.90
24408;DHT22;12542;50.924;4.516;2022-09-09T06:11:44;16.00;99.90
24408;DHT22;12542;50.924;4.516;2022-09-09T06:14:10;15.90;99.90
24408;DHT22;12542;50.924;4.516;2022-09-09T06:16:37;16.00;99.90
24408;DHT22;12542;50.924;4.516;2022-09-09T06:19:09;16.20;99.90
24408;DHT22;12542;50.924;4.516;2022-09-09T06:21:36;16.70;99.90
24408;DHT22;12542;50.924;4.516;2022-09-09T06:24:05;17.00;99.90
24408;DHT22;12542;50.924;4.516;2022-09-09T06:26:37;17.00;99.90
24408;DHT22;12542;50.924;4.516;2022-09-09T06:29:06;16.90;99.90
24408;DHT22;12542;50.924;4.516;2022-09-09T06:31:33;17.00;99.90
24408;DHT22;12542;50.924;4.516;2022-09-09T06:34:00;17.00;99.90
24408;DHT22;12542;50.924;4.516;2022-09-09T06:36:31;16.80;99.90
24408;DHT22;12542;50.924;4.516;2022-09-09T06:38:58;17.30;99.90
24408;DHT22;12542;50.924;4.516;2022-09-09T06:41:26;18.20;99.90
24408;DHT22;12542;50.924;4.516;2022-09-09T06:43:53;18.80;99.90
24408;DHT22;12542;50.924;4.516;2022-09-09T06:46:20;18.60;99.90
24408;DHT22;12542;50.924;4.516;2022-09-09T06:48:53;18.50;99.90
24408;DHT22;12542;50.924;4.516;2022-09-09T06:51:22;18.20;99.90
24408;DHT22;12542;50.924;4.516;2022-09-09T06:53:50;17.80;99.90
24408;DHT22;12542;50.924;4.516;2022-09-09T06:58:45;17.00;99.90
24408;DHT22;12542;50.924;4.516;2022-09-09T07:01:13;16.90;99.90
24408;DHT22;12542;50.924;4.516;2022-09-09T07:03:39;16.60;99.90
24408;DHT22;12542;50.924;4.516;2022-09-09T07:06:06;16.60;99.90
24408;DHT22;12542;50.924;4.516;2022-09-09T07:08:33;16.60;99.90
24408;DHT22;12542;50.924;4.516;2022-09-09T07:11:06;16.50;99.90
24408;DHT22;12542;50.924;4.516;2022-09-09T07:13:33;16.60;99.90
24408;DHT22;12542;50.924;4.516;2022-09-09T07:16:08;16.50;99.90
24408;DHT22;12542;50.924;4.516;2022-09-09T07:18:34;16.50;99.90
24408;DHT22;12542;50.924;4.516;2022-09-09T07:21:01;16.50;99.90
24408;DHT22;12542;50.924;4.516;2022-09-09T07:23:28;16.60;99.90
24408;DHT22;12542;50.924;4.516;2022-09-09T07:25:56;16.70;99.90
24408;DHT22;12542;50.924;4.516;2022-09-09T07:28:22;16.60;99.90
24408;DHT22;12542;50.924;4.516;2022-09-09T07:30:59;16.70;99.90
24408;DHT22;12542;50.924;4.516;2022-09-09T07:33:28;16.80;99.90
24408;DHT22;12542;50.924;4.516;2022-09-09T07:36:17;16.90;99.90
24408;DHT22;12542;50.924;4.516;2022-09-09T07:38:45;16.80;99.90
24408;DHT22;12542;50.924;4.516;2022-09-09T07:41:20;16.90;99.90
24408;DHT22;12542;50.924;4.516;2022-09-09T07:43:49;16.90;99.90
24408;DHT22;12542;50.924;4.516;2022-09-09T07:46:18;16.90;99.90
24408;DHT22;12542;50.924;4.516;2022-09-09T07:48:49;16.90;99.90
24408;DHT22;12542;50.924;4.516;2022-09-09T07:51:22;17.00;99.90
24408;DHT22;12542;50.924;4.516;2022-09-09T07:53:52;16.90;99.90
24408;DHT22;12542;50.924;4.516;2022-09-09T07:56:19;16.90;99.90
24408;DHT22;12542;50.924;4.516;2022-09-09T07:58:48;16.90;99.90
24408;DHT22;12542;50.924;4.516;2022-09-09T08:01:20;17.10;99.90
24408;DHT22;12542;50.924;4.516;2022-09-09T08:03:53;17.10;99.90
24408;DHT22;12542;50.924;4.516;2022-09-09T08:06:19;17.20;99.90
24408;DHT22;12542;50.924;4.516;2022-09-09T08:08:45;17.10;99.90
24408;DHT22;12542;50.924;4.516;2022-09-09T08:11:17;17.00;99.90
24408;DHT22;12542;50.924;4.516;2022-09-09T08:13:44;16.90;99.90
24408;DHT22;12542;50.924;4.516;2022-09-09T08:16:15;17.10;99.90
24408;DHT22;12542;50.924;4.516;2022-09-09T08:18:41;17.30;99.90
24408;DHT22;12542;50.924;4.516;2022-09-09T08:21:13;17.60;99.90
24408;DHT22;12542;50.924;4.516;2022-09-09T08:23:43;18.00;99.90
24408;DHT22;12542;50.924;4.516;2022-09-09T08:26:12;18.60;99.90
24408;DHT22;12542;50.924;4.516;2022-09-09T08:28:39;19.00;99.90
24408;DHT22;12542;50.924;4.516;2022-09-09T08:31:13;19.00;99.90
24408;DHT22;12542;50.924;4.516;2022-09-09T08:33:41;18.80;99.90
24408;DHT22;12542;50.924;4.516;2022-09-09T08:36:10;18.60;99.90
24408;DHT22;12542;50.924;4.516;2022-09-09T08:38:36;18.40;99.90
24408;DHT22;12542;50.924;4.516;2022-09-09T08:49:10;17.70;99.90
24408;DHT22;12542;50.924;4.516;2022-09-09T08:51:40;17.80;99.90
24408;DHT22;12542;50.924;4.516;2022-09-09T08:54:08;17.70;99.90
24408;DHT22;12542;50.924;4.516;2022-09-09T08:56:35;17.70;99.90
24408;DHT22;12542;50.924;4.516;2022-09-09T08:59:02;17.70;99.90
24408;DHT22;12542;50.924;4.516;2022-09-09T09:10:03;17.30;99.90
24408;DHT22;12542;50.924;4.516;2022-09-09T09:12:54;17.50;99.90
24408;DHT22;12542;50.924;4.516;2022-09-09T09:15:36;17.50;99.90
24408;DHT22;12542;50.924;4.516;2022-09-09T09:18:04;17.40;99.90
24408;DHT22;12542;50.924;4.516;2022-09-09T09:23:22;17.30;99.90
24408;DHT22;12542;50.924;4.516;2022-09-09T09:25:50;17.20;99.90
24408;DHT22;12542;50.924;4.516;2022-09-09T09:28:23;17.20;99.90
24408;DHT22;12542;50.924;4.516;2022-09-09T09:30:58;17.20;99.90
24408;DHT22;12542;50.924;4.516;2022-09-09T09:33:28;17.20;99.90
24408;DHT22;12542;50.924;4.516;2022-09-09T09:35:54;17.20;99.90
24408;DHT22;12542;50.924;4.516;2022-09-09T09:38:24;17.10;99.90
24408;DHT22;12542;50.924;4.516;2022-09-09T09:40:58;17.10;99.90
24408;DHT22;12542;50.924;4.516;2022-09-09T09:43:35;17.10;99.90
24408;DHT22;12542;50.924;4.516;2022-09-09T09:46:05;17.20;99.90
24408;DHT22;12542;50.924;4.516;2022-09-09T09:48:43;17.20;99.90
24408;DHT22;12542;50.924;4.516;2022-09-09T09:51:13;17.10;99.90
24408;DHT22;12542;50.924;4.516;2022-09-09T09:53:41;17.20;99.90
24408;DHT22;12542;50.924;4.516;2022-09-09T09:56:08;17.30;99.90
24408;DHT22;12542;50.924;4.516;2022-09-09T09:58:49;17.20;99.90
24408;DHT22;12542;50.924;4.516;2022-09-09T10:01:30;17.20;99.90
24408;DHT22;12542;50.924;4.516;2022-09-09T10:04:20;17.20;99.90
24408;DHT22;12542;50.924;4.516;2022-09-09T10:06:49;17.20;99.90
24408;DHT22;12542;50.924;4.516;2022-09-09T10:09:41;17.40;99.90
24408;DHT22;12542;50.924;4.516;2022-09-09T10:15:21;17.50;99.90
24408;DHT22;12542;50.924;4.516;2022-09-09T10:18:04;17.50;99.90
24408;DHT22;12542;50.924;4.516;2022-09-09T10:21:03;17.50;99.90
24408;DHT22;12542;50.924;4.516;2022-09-09T11:00:06;19.90;99.90
24408;DHT22;12542;50.924;4.516;2022-09-09T11:02:34;20.20;99.90
24408;DHT22;12542;50.924;4.516;2022-09-09T11:07:52;20.70;99.90
24408;DHT22;12542;50.924;4.516;2022-09-09T11:10:25;20.80;99.90
24408;DHT22;12542;50.924;4.516;2022-09-09T11:13:02;20.80;99.90
24408;DHT22;12542;50.924;4.516;2022-09-09T11:15:39;20.60;99.90
24408;DHT22;12542;50.924;4.516;2022-09-09T11:18:13;20.90;99.90
24408;DHT22;12542;50.924;4.516;2022-09-09T11:20:39;20.80;99.90
24408;DHT22;12542;50.924;4.516;2022-09-09T11:23:13;20.90;99.90
24408;DHT22;12542;50.924;4.516;2022-09-09T11:25:54;20.80;99.90
24408;DHT22;12542;50.924;4.516;2022-09-09T11:42:16;21.20;99.90
24408;DHT22;12542;50.924;4.516;2022-09-09T11:44:43;21.00;99.90
24408;DHT22;12542;50.924;4.516;2022-09-09T11:47:26;20.90;99.90
24408;DHT22;12542;50.924;4.516;2022-09-09T11:52:44;20.60;99.90
24408;DHT22;12542;50.924;4.516;2022-09-09T11:55:27;20.70;99.90
24408;DHT22;12542;50.924;4.516;2022-09-09T11:58:05;20.40;99.90
24408;DHT22;12542;50.924;4.516;2022-09-09T12:06:31;20.80;99.90
24408;DHT22;12542;50.924;4.516;2022-09-09T12:11:32;20.30;99.90
24408;DHT22;12542;50.924;4.516;2022-09-09T12:13:59;20.60;99.90
24408;DHT22;12542;50.924;4.516;2022-09-09T12:16:36;20.70;99.90
24408;DHT22;12542;50.924;4.516;2022-09-09T12:19:26;20.90;99.90
24408;DHT22;12542;50.924;4.516;2022-09-09T12:22:01;21.10;99.90
24408;DHT22;12542;50.924;4.516;2022-09-09T12:24:35;21.30;99.90
24408;DHT22;12542;50.924;4.516;2022-09-09T12:30:14;21.20;99.90
24408;DHT22;12542;50.924;4.516;2022-09-09T12:32:40;21.00;99.90
24408;DHT22;12542;50.924;4.516;2022-09-09T12:35:26;20.80;99.90
24408;DHT22;12542;50.924;4.516;2022-09-09T12:38:01;21.00;99.90
24408;DHT22;12542;50.924;4.516;2022-09-09T12:40:33;21.00;99.90
24408;DHT22;12542;50.924;4.516;2022-09-09T12:43:22;20.90;99.90
24408;DHT22;12542;50.924;4.516;2022-09-09T12:45:51;21.00;99.90
24408;DHT22;12542;50.924;4.516;2022-09-09T12:48:27;20.90;99.90
24408;DHT22;12542;50.924;4.516;2022-09-09T12:50:54;20.70;99.90
24408;DHT22;12542;50.924;4.516;2022-09-09T12:53:34;20.80;99.90
24408;DHT22;12542;50.924;4.516;2022-09-09T12:56:06;20.80;99.90
24408;DHT22;12542;50.924;4.516;2022-09-09T12:58:37;20.80;99.90
24408;DHT22;12542;50.924;4.516;2022-09-09T13:01:04;20.80;99.90
24408;DHT22;12542;50.924;4.516;2022-09-09T13:03:32;21.10;99.90
24408;DHT22;12542;50.924;4.516;2022-09-09T13:06:11;21.50;99.90
24408;DHT22;12542;50.924;4.516;2022-09-09T13:08:37;21.70;99.90
24408;DHT22;12542;50.924;4.516;2022-09-09T13:11:07;21.90;99.90
24408;DHT22;12542;50.924;4.516;2022-09-09T13:13:37;22.10;99.90
24408;DHT22;12542;50.924;4.516;2022-09-09T13:16:04;22.20;99.90
24408;DHT22;12542;50.924;4.516;2022-09-09T13:18:36;22.10;99.90
24408;DHT22;12542;50.924;4.516;2022-09-09T13:21:03;22.10;99.90
24408;DHT22;12542;50.924;4.516;2022-09-09T13:23:40;22.20;99.90
24408;DHT22;12542;50.924;4.516;2022-09-09T13:26:24;22.50;99.90
24408;DHT22;12542;50.924;4.516;2022-09-09T13:28:51;22.70;99.90
24408;DHT22;12542;50.924;4.516;2022-09-09T13:31:30;22.90;99.90
24408;DHT22;12542;50.924;4.516;2022-09-09T13:33:58;22.90;99.90
24408;DHT22;12542;50.924;4.516;2022-09-09T13:36:32;22.90;99.90
24408;DHT22;12542;50.924;4.516;2022-09-09T13:39:01;22.90;99.90
24408;DHT22;12542;50.924;4.516;2022-09-09T13:41:43;22.80;99.90
24408;DHT22;12542;50.924;4.516;2022-09-09T13:44:30;22.90;99.90
24408;DHT22;12542;50.924;4.516;2022-09-09T13:49:29;22.80;99.90
24408;DHT22;12542;50.924;4.516;2022-09-09T13:52:09;22.80;99.90
24408;DHT22;12542;50.924;4.516;2022-09-09T13:54:35;22.90;99.90
24408;DHT22;12542;50.924;4.516;2022-09-09T13:57:01;22.80;99.90
24408;DHT22;12542;50.924;4.516;2022-09-09T13:59:27;23.00;99.90
24408;DHT22;12542;50.924;4.516;2022-09-09T14:01:55;23.10;99.90
24408;DHT22;12542;50.924;4.516;2022-09-09T14:04:21;23.30;99.90
24408;DHT22;12542;50.924;4.516;2022-09-09T14:06:49;23.30;99.90
24408;DHT22;12542;50.924;4.516;2022-09-09T14:09:16;23.20;99.90
24408;DHT22;12542;50.924;4.516;2022-09-09T14:11:44;22.90;99.90
24408;DHT22;12542;50.924;4.516;2022-09-09T14:14:10;22.70;99.90
24408;DHT22;12542;50.924;4.516;2022-09-09T14:16:36;22.80;99.90
24408;DHT22;12542;50.924;4.516;2022-09-09T14:19:03;22.70;99.90
24408;DHT22;12542;50.924;4.516;2022-09-09T14:21:29;22.80;99.90
24408;DHT22;12542;50.924;4.516;2022-09-09T14:23:55;22.90;99.90
24408;DHT22;12542;50.924;4.516;2022-09-09T14:26:21;22.90;99.90
24408;DHT22;12542;50.924;4.516;2022-09-09T14:28:47;22.80;99.90
24408;DHT22;12542;50.924;4.516;2022-09-09T14:31:14;22.90;99.90
24408;DHT22;12542;50.924;4.516;2022-09-09T14:33:40;22.90;99.90
24408;DHT22;12542;50.924;4.516;2022-09-09T14:36:09;23.00;99.90
24408;DHT22;12542;50.924;4.516;2022-09-09T14:38:37;23.00;99.90
24408;DHT22;12542;50.924;4.516;2022-09-09T14:41:10;22.90;99.90
24408;DHT22;12542;50.924;4.516;2022-09-09T14:43:40;22.70;99.90
24408;DHT22;12542;50.924;4.516;2022-09-09T14:46:08;22.80;99.90
24408;DHT22;12542;50.924;4.516;2022-09-09T14:48:35;22.90;99.90
24408;DHT22;12542;50.924;4.516;2022-09-09T14:51:15;23.10;99.90
24408;DHT22;12542;50.924;4.516;2022-09-09T14:53:42;23.00;99.90
24408;DHT22;12542;50.924;4.516;2022-09-09T14:56:11;22.70;99.90
24408;DHT22;12542;50.924;4.516;2022-09-09T14:58:40;22.60;99.90
24408;DHT22;12542;50.924;4.516;2022-09-09T15:01:08;22.70;99.90
24408;DHT22;12542;50.924;4.516;2022-09-09T15:03:36;22.80;99.90
24408;DHT22;12542;50.924;4.516;2022-09-09T15:06:13;22.60;99.90
24408;DHT22;12542;50.924;4.516;2022-09-09T15:08:41;22.50;99.90
24408;DHT22;12542;50.924;4.516;2022-09-09T15:11:09;22.50;99.90
24408;DHT22;12542;50.924;4.516;2022-09-09T15:13:36;22.50;99.90
24408;DHT22;12542;50.924;4.516;2022-09-09T15:16:10;22.60;99.90
24408;DHT22;12542;50.924;4.516;2022-09-09T15:18:36;22.50;99.90
24408;DHT22;12542;50.924;4.516;2022-09-09T15:21:05;22.60;99.90
24408;DHT22;12542;50.924;4.516;2022-09-09T15:23:37;22.70;99.90
24408;DHT22;12542;50.924;4.516;2022-09-09T15:26:03;22.60;99.90
24408;DHT22;12542;50.924;4.516;2022-09-09T15:28:34;22.50;99.90
24408;DHT22;12542;50.924;4.516;2022-09-09T15:31:15;22.30;99.90
24408;DHT22;12542;50.924;4.516;2022-09-09T15:33:50;22.50;99.90
24408;DHT22;12542;50.924;4.516;2022-09-09T15:36:21;22.60;99.90
24408;DHT22;12542;50.924;4.516;2022-09-09T15:38:47;22.60;99.90
24408;DHT22;12542;50.924;4.516;2022-09-09T15:41:13;22.60;99.90
24408;DHT22;12542;50.924;4.516;2022-09-09T15:43:47;22.50;99.90
24408;DHT22;12542;50.924;4.516;2022-09-09T15:49:06;22.40;99.90
24408;DHT22;12542;50.924;4.516;2022-09-09T15:51:32;22.50;99.90
24408;DHT22;12542;50.924;4.516;2022-09-09T15:53:59;22.50;99.90
24408;DHT22;12542;50.924;4.516;2022-09-09T15:56:26;22.30;99.90
24408;DHT22;12542;50.924;4.516;2022-09-09T15:58:53;22.20;99.90
24408;DHT22;12542;50.924;4.516;2022-09-09T16:01:22;22.00;99.90
24408;DHT22;12542;50.924;4.516;2022-09-09T16:03:48;22.00;99.90
24408;DHT22;12542;50.924;4.516;2022-09-09T16:06:18;22.10;99.90
24408;DHT22;12542;50.924;4.516;2022-09-09T16:08:45;22.20;99.90
24408;DHT22;12542;50.924;4.516;2022-09-09T16:11:14;22.00;99.90
24408;DHT22;12542;50.924;4.516;2022-09-09T16:13:42;22.00;99.90
24408;DHT22;12542;50.924;4.516;2022-09-09T16:16:11;22.00;99.90
24408;DHT22;12542;50.924;4.516;2022-09-09T16:18:46;21.90;99.90
24408;DHT22;12542;50.924;4.516;2022-09-09T16:21:32;21.90;99.90
24408;DHT22;12542;50.924;4.516;2022-09-09T16:24:00;21.90;99.90
24408;DHT22;12542;50.924;4.516;2022-09-09T16:26:28;21.90;99.90
24408;DHT22;12542;50.924;4.516;2022-09-09T16:28:55;21.70;99.90
24408;DHT22;12542;50.924;4.516;2022-09-09T16:31:25;21.60;99.90
24408;DHT22;12542;50.924;4.516;2022-09-09T16:33:52;21.60;99.90
24408;DHT22;12542;50.924;4.516;2022-09-09T16:36:20;21.50;99.90
24408;DHT22;12542;50.924;4.516;2022-09-09T16:38:46;21.50;99.90
24408;DHT22;12542;50.924;4.516;2022-09-09T16:41:13;21.50;99.90
24408;DHT22;12542;50.924;4.516;2022-09-09T16:43:40;21.40;99.90
24408;DHT22;12542;50.924;4.516;2022-09-09T16:46:14;21.40;99.90
24408;DHT22;12542;50.924;4.516;2022-09-09T16:48:42;21.30;99.90
24408;DHT22;12542;50.924;4.516;2022-09-09T16:51:16;21.10;99.90
24408;DHT22;12542;50.924;4.516;2022-09-09T16:53:42;21.00;99.90
24408;DHT22;12542;50.924;4.516;2022-09-09T16:56:13;21.00;99.90
24408;DHT22;12542;50.924;4.516;2022-09-09T16:58:40;21.00;99.90
24408;DHT22;12542;50.924;4.516;2022-09-09T17:01:06;21.00;99.90
24408;DHT22;12542;50.924;4.516;2022-09-09T17:03:32;21.00;99.90
24408;DHT22;12542;50.924;4.516;2022-09-09T17:05:59;21.20;99.90
24408;DHT22;12542;50.924;4.516;2022-09-09T17:08:31;21.30;99.90
24408;DHT22;12542;50.924;4.516;2022-09-09T17:10:57;21.30;99.90
24408;DHT22;12542;50.924;4.516;2022-09-09T17:13:25;21.20;99.90
24408;DHT22;12542;50.924;4.516;2022-09-09T17:15:51;21.30;99.90
24408;DHT22;12542;50.924;4.516;2022-09-09T17:18:18;21.30;99.90
24408;DHT22;12542;50.924;4.516;2022-09-09T17:20:44;21.30;99.90
24408;DHT22;12542;50.924;4.516;2022-09-09T17:23:11;21.40;99.90
24408;DHT22;12542;50.924;4.516;2022-09-09T17:25:41;21.30;99.90
24408;DHT22;12542;50.924;4.516;2022-09-09T17:28:06;21.40;99.90
24408;DHT22;12542;50.924;4.516;2022-09-09T17:30:36;21.30;99.90
24408;DHT22;12542;50.924;4.516;2022-09-09T17:33:03;21.10;99.90
24408;DHT22;12542;50.924;4.516;2022-09-09T17:35:30;20.90;99.90
24408;DHT22;12542;50.924;4.516;2022-09-09T17:37:57;20.70;99.90
24408;DHT22;12542;50.924;4.516;2022-09-09T17:40:23;20.60;99.90
24408;DHT22;12542;50.924;4.516;2022-09-09T17:42:49;20.70;99.90
24408;DHT22;12542;50.924;4.516;2022-09-09T17:45:15;20.70;99.90
24408;DHT22;12542;50.924;4.516;2022-09-09T17:47:41;20.60;99.90
24408;DHT22;12542;50.924;4.516;2022-09-09T17:50:09;20.60;99.90
24408;DHT22;12542;50.924;4.516;2022-09-09T17:52:38;20.50;99.90
24408;DHT22;12542;50.924;4.516;2022-09-09T17:55:05;20.30;99.90
24408;DHT22;12542;50.924;4.516;2022-09-09T17:57:34;20.20;99.90
24408;DHT22;12542;50.924;4.516;2022-09-09T18:00:00;20.30;99.90
24408;DHT22;12542;50.924;4.516;2022-09-09T18:02:26;20.10;99.90
24408;DHT22;12542;50.924;4.516;2022-09-09T18:04:52;20.00;99.90
24408;DHT22;12542;50.924;4.516;2022-09-09T18:07:18;20.00;99.90
24408;DHT22;12542;50.924;4.516;2022-09-09T18:09:46;19.80;99.90
24408;DHT22;12542;50.924;4.516;2022-09-09T18:12:14;19.80;99.90